sensor_id;sensor_type;location;lat;lon;timestamp;pressure;altitude;pressure_sealevel;temperature;humidity
44872;BME280;30602;51.060;17.226;2023-03-20T00:00:55;101552.44;;;5.70;91.52
44872;BME280;30602;51.060;17.226;2023-03-20T00:04:35;101553.52;;;5.85;91.39
44872;BME280;30602;51.060;17.226;2023-03-20T00:07:56;101549.34;;;5.99;90.99
44872;BME280;30602;51.060;17.226;2023-03-20T00:12:01;101551.39;;;6.08;90.79
44872;BME280;30602;51.060;17.226;2023-03-20T00:19:22;101545.00;;;6.12;90.90
44872;BME280;30602;51.060;17.226;2023-03-20T00:23:12;101543.03;;;6.13;90.82
44872;BME280;30602;51.060;17.226;2023-03-20T00:26:38;101543.43;;;6.15;91.06
44872;BME280;30602;51.060;17.226;2023-03-20T00:30:29;101544.26;;;6.12;91.00
44872;BME280;30602;51.060;17.226;2023-03-20T00:34:24;101545.71;;;6.08;91.18
44872;BME280;30602;51.060;17.226;2023-03-20T00:38:21;101546.65;;;6.14;91.12
44872;BME280;30602;51.060;17.226;2023-03-20T00:42:30;101542.65;;;6.26;90.39
44872;BME280;30602;51.060;17.226;2023-03-20T00:46:10;101541.61;;;6.29;90.28
44872;BME280;30602;51.060;17.226;2023-03-20T00:50:15;101539.65;;;6.26;90.62
44872;BME280;30602;51.060;17.226;2023-03-20T00:58:06;101538.56;;;6.21;91.32
44872;BME280;30602;51.060;17.226;2023-03-20T01:01:46;101536.45;;;6.22;91.32
44872;BME280;30602;51.060;17.226;2023-03-20T01:05:45;101532.67;;;6.20;91.33
44872;BME280;30602;51.060;17.226;2023-03-20T01:09:15;101534.25;;;6.24;91.11
44872;BME280;30602;51.060;17.226;2023-03-20T01:12:39;101530.91;;;6.28;91.12
44872;BME280;30602;51.060;17.226;2023-03-20T01:16:18;101532.38;;;6.47;89.50
44872;BME280;30602;51.060;17.226;2023-03-20T01:20:27;101531.22;;;6.76;87.90
44872;BME280;30602;51.060;17.226;2023-03-20T01:23:55;101531.07;;;7.04;86.66
44872;BME280;30602;51.060;17.226;2023-03-20T01:27:22;101531.28;;;7.18;86.30
44872;BME280;30602;51.060;17.226;2023-03-20T01:30:57;101535.54;;;7.32;85.76
44872;BME280;30602;51.060;17.226;2023-03-20T01:34:46;101509.00;;;7.26;85.06
44872;BME280;30602;51.060;17.226;2023-03-20T01:38:44;101535.41;;;7.49;84.69
44872;BME280;30602;51.060;17.226;2023-03-20T01:42:31;101532.57;;;7.47;84.98
44872;BME280;30602;51.060;17.226;2023-03-20T01:46:26;101535.55;;;7.51;85.02
44872;BME280;30602;51.060;17.226;2023-03-20T01:50:30;101534.28;;;7.55;85.14
44872;BME280;30602;51.060;17.226;2023-03-20T01:54:09;101506.83;;;7.37;85.63
44872;BME280;30602;51.060;17.226;2023-03-20T01:57:52;101511.31;;;7.42;86.28
44872;BME280;30602;51.060;17.226;2023-03-20T02:01:53;101535.66;;;7.56;86.88
44872;BME280;30602;51.060;17.226;2023-03-20T02:05:52;101536.09;;;7.65;86.94
44872;BME280;30602;51.060;17.226;2023-03-20T02:09:46;101527.99;;;7.65;87.44
44872;BME280;30602;51.060;17.226;2023-03-20T02:13:37;101532.77;;;7.75;88.70
44872;BME280;30602;51.060;17.226;2023-03-20T02:28:25;101529.87;;;8.03;90.09
44872;BME280;30602;51.060;17.226;2023-03-20T02:55:54;101531.22;;;8.10;96.82
44872;BME280;30602;51.060;17.226;2023-03-20T03:07:29;101518.34;;;8.16;99.69
44872;BME280;30602;51.060;17.226;2023-03-20T03:11:05;101525.33;;;8.18;100.00
44872;BME280;30602;51.060;17.226;2023-03-20T03:15:00;101523.57;;;8.07;100.00
44872;BME280;30602;51.060;17.226;2023-03-20T03:18:57;101530.89;;;8.09;100.00
44872;BME280;30602;51.060;17.226;2023-03-20T03:22:22;101525.24;;;8.06;100.00
44872;BME280;30602;51.060;17.226;2023-03-20T03:26:20;101528.87;;;8.05;100.00
44872;BME280;30602;51.060;17.226;2023-03-20T03:30:15;101519.52;;;7.96;100.00
44872;BME280;30602;51.060;17.226;2023-03-20T03:34:16;101523.75;;;7.98;100.00
44872;BME280;30602;51.060;17.226;2023-03-20T03:42:36;101524.13;;;8.03;100.00
44872;BME280;30602;51.060;17.226;2023-03-20T03:50:16;101521.78;;;8.14;100.00
44872;BME280;30602;51.060;17.226;2023-03-20T03:53:41;101520.78;;;8.12;100.00
44872;BME280;30602;51.060;17.226;2023-03-20T03:58:33;101520.75;;;8.08;100.00
44872;BME280;30602;51.060;17.226;2023-03-20T04:02:26;101520.66;;;8.08;100.00
44872;BME280;30602;51.060;17.226;2023-03-20T04:06:05;101521.99;;;8.08;100.00
44872;BME280;30602;51.060;17.226;2023-03-20T04:09:51;101523.62;;;8.03;100.00
44872;BME280;30602;51.060;17.226;2023-03-20T04:13:37;101523.17;;;8.04;100.00
44872;BME280;30602;51.060;17.226;2023-03-20T04:17:16;101527.30;;;8.04;100.00
44872;BME280;30602;51.060;17.226;2023-03-20T04:20:53;101514.02;;;7.97;100.00
44872;BME280;30602;51.060;17.226;2023-03-20T04:24:34;101532.09;;;8.06;100.00
44872;BME280;30602;51.060;17.226;2023-03-20T04:28:31;101532.07;;;8.09;100.00
44872;BME280;30602;51.060;17.226;2023-03-20T04:32:30;101518.55;;;8.07;100.00
44872;BME280;30602;51.060;17.226;2023-03-20T04:36:05;101531.63;;;8.24;100.00
44872;BME280;30602;51.060;17.226;2023-03-20T04:39:26;101535.23;;;8.21;100.00
44872;BME280;30602;51.060;17.226;2023-03-20T04:42:47;101537.60;;;8.16;100.00
44872;BME280;30602;51.060;17.226;2023-03-20T04:46:42;101538.28;;;8.12;100.00
44872;BME280;30602;51.060;17.226;2023-03-20T04:50:38;101539.39;;;8.10;100.00
44872;BME280;30602;51.060;17.226;2023-03-20T04:54:18;101541.17;;;8.08;100.00
44872;BME280;30602;51.060;17.226;2023-03-20T04:57:47;101544.05;;;8.04;100.00
44872;BME280;30602;51.060;17.226;2023-03-20T05:02:25;101545.20;;;8.00;100.00
44872;BME280;30602;51.060;17.226;2023-03-20T05:06:29;101548.66;;;8.01;100.00
44872;BME280;30602;51.060;17.226;2023-03-20T05:14:25;101549.53;;;7.99;100.00
44872;BME280;30602;51.060;17.226;2023-03-20T05:17:46;101545.45;;;8.08;100.00
44872;BME280;30602;51.060;17.226;2023-03-20T05:21:16;101551.10;;;8.10;100.00
44872;BME280;30602;51.060;17.226;2023-03-20T05:25:23;101548.17;;;8.08;100.00
44872;BME280;30602;51.060;17.226;2023-03-20T05:29:45;101547.26;;;8.02;100.00
44872;BME280;30602;51.060;17.226;2023-03-20T05:33:33;101546.68;;;7.94;100.00
44872;BME280;30602;51.060;17.226;2023-03-20T05:37:01;101553.38;;;7.92;100.00
44872;BME280;30602;51.060;17.226;2023-03-20T05:40:25;101563.73;;;7.85;100.00
44872;BME280;30602;51.060;17.226;2023-03-20T05:44:38;101569.47;;;7.79;100.00
44872;BME280;30602;51.060;17.226;2023-03-20T05:48:01;101574.25;;;7.79;100.00
44872;BME280;30602;51.060;17.226;2023-03-20T05:51:38;101573.83;;;7.78;100.00
44872;BME280;30602;51.060;17.226;2023-03-20T05:55:18;101576.98;;;7.78;100.00
44872;BME280;30602;51.060;17.226;2023-03-20T05:59:27;101579.41;;;7.83;100.00
44872;BME280;30602;51.060;17.226;2023-03-20T06:03:09;101584.56;;;7.95;100.00
44872;BME280;30602;51.060;17.226;2023-03-20T06:06:53;101574.93;;;8.05;100.00
44872;BME280;30602;51.060;17.226;2023-03-20T06:14:40;101572.13;;;8.20;100.00
44872;BME280;30602;51.060;17.226;2023-03-20T06:18:56;101565.45;;;8.27;100.00
44872;BME280;30602;51.060;17.226;2023-03-20T06:23:00;101573.34;;;8.38;100.00
44872;BME280;30602;51.060;17.226;2023-03-20T06:26:49;101576.80;;;8.53;100.00
44872;BME280;30602;51.060;17.226;2023-03-20T06:30:39;101582.45;;;8.59;100.00
44872;BME280;30602;51.060;17.226;2023-03-20T06:34:12;101578.79;;;8.64;100.00
44872;BME280;30602;51.060;17.226;2023-03-20T06:37:57;101582.61;;;8.73;100.00
44872;BME280;30602;51.060;17.226;2023-03-20T06:41:41;101588.20;;;8.84;100.00
44872;BME280;30602;51.060;17.226;2023-03-20T06:45:21;101590.02;;;8.92;100.00
44872;BME280;30602;51.060;17.226;2023-03-20T06:49:20;101589.27;;;9.09;100.00
44872;BME280;30602;51.060;17.226;2023-03-20T06:52:50;101592.81;;;9.10;100.00
44872;BME280;30602;51.060;17.226;2023-03-20T06:56:39;101593.35;;;9.14;100.00
44872;BME280;30602;51.060;17.226;2023-03-20T07:04:03;101594.30;;;9.18;100.00
44872;BME280;30602;51.060;17.226;2023-03-20T07:07:48;101589.55;;;9.28;100.00
44872;BME280;30602;51.060;17.226;2023-03-20T07:11:51;101591.32;;;9.33;100.00
44872;BME280;30602;51.060;17.226;2023-03-20T07:16:24;101593.30;;;9.37;100.00
44872;BME280;30602;51.060;17.226;2023-03-20T07:19:51;101599.30;;;9.44;100.00
44872;BME280;30602;51.060;17.226;2023-03-20T07:23:35;101600.98;;;9.43;100.00
44872;BME280;30602;51.060;17.226;2023-03-20T07:27:52;101596.69;;;9.45;100.00
44872;BME280;30602;51.060;17.226;2023-03-20T07:31:47;101602.25;;;9.65;100.00
44872;BME280;30602;51.060;17.226;2023-03-20T07:35:51;101603.85;;;9.78;100.00
44872;BME280;30602;51.060;17.226;2023-03-20T07:39:38;101605.55;;;9.79;100.00
44872;BME280;30602;51.060;17.226;2023-03-20T07:43:08;101609.27;;;9.77;100.00
44872;BME280;30602;51.060;17.226;2023-03-20T07:46:55;101611.23;;;9.74;100.00
44872;BME280;30602;51.060;17.226;2023-03-20T07:50:51;101609.52;;;9.75;100.00
44872;BME280;30602;51.060;17.226;2023-03-20T07:54:38;101615.84;;;9.73;100.00
44872;BME280;30602;51.060;17.226;2023-03-20T07:58:35;101617.77;;;9.75;100.00
44872;BME280;30602;51.060;17.226;2023-03-20T08:02:53;101615.70;;;9.71;100.00
44872;BME280;30602;51.060;17.226;2023-03-20T08:06:22;101615.89;;;9.73;100.00
44872;BME280;30602;51.060;17.226;2023-03-20T08:09:56;101613.16;;;9.80;100.00
44872;BME280;30602;51.060;17.226;2023-03-20T08:13:57;101612.91;;;9.89;100.00
44872;BME280;30602;51.060;17.226;2023-03-20T08:17:32;101620.05;;;10.01;100.00
44872;BME280;30602;51.060;17.226;2023-03-20T08:21:21;101620.77;;;9.98;100.00
44872;BME280;30602;51.060;17.226;2023-03-20T08:24:46;101614.10;;;9.91;100.00
44872;BME280;30602;51.060;17.226;2023-03-20T08:28:13;101621.76;;;9.86;100.00
44872;BME280;30602;51.060;17.226;2023-03-20T08:32:04;101623.66;;;9.89;100.00
44872;BME280;30602;51.060;17.226;2023-03-20T08:35:34;101627.95;;;9.91;100.00
44872;BME280;30602;51.060;17.226;2023-03-20T08:39:26;101629.06;;;9.89;100.00
44872;BME280;30602;51.060;17.226;2023-03-20T08:43:00;101630.80;;;9.86;100.00
44872;BME280;30602;51.060;17.226;2023-03-20T08:46:29;101636.62;;;9.84;100.00
44872;BME280;30602;51.060;17.226;2023-03-20T08:50:02;101641.91;;;9.87;100.00
44872;BME280;30602;51.060;17.226;2023-03-20T08:54:24;101641.98;;;9.90;100.00
44872;BME280;30602;51.060;17.226;2023-03-20T08:58:14;101644.75;;;10.02;100.00
44872;BME280;30602;51.060;17.226;2023-03-20T09:01:38;101644.64;;;10.06;100.00
44872;BME280;30602;51.060;17.226;2023-03-20T09:05:29;101649.84;;;9.99;99.75
44872;BME280;30602;51.060;17.226;2023-03-20T09:10:05;101646.59;;;9.97;99.54
44872;BME280;30602;51.060;17.226;2023-03-20T09:13:35;101648.80;;;9.97;98.55
44872;BME280;30602;51.060;17.226;2023-03-20T09:17:47;101653.57;;;9.89;98.92
44872;BME280;30602;51.060;17.226;2023-03-20T09:21:35;101640.34;;;9.75;99.07
44872;BME280;30602;51.060;17.226;2023-03-20T09:25:11;101654.28;;;9.82;99.17
44872;BME280;30602;51.060;17.226;2023-03-20T09:28:35;101651.02;;;9.79;98.87
44872;BME280;30602;51.060;17.226;2023-03-20T09:32:04;101653.14;;;9.77;99.18
44872;BME280;30602;51.060;17.226;2023-03-20T09:35:36;101649.62;;;9.83;99.51
44872;BME280;30602;51.060;17.226;2023-03-20T09:39:04;101650.20;;;9.94;99.48
44872;BME280;30602;51.060;17.226;2023-03-20T09:50:45;101645.21;;;10.20;98.21
44872;BME280;30602;51.060;17.226;2023-03-20T09:54:44;101650.38;;;10.33;97.76
44872;BME280;30602;51.060;17.226;2023-03-20T09:58:36;101636.67;;;10.47;97.82
44872;BME280;30602;51.060;17.226;2023-03-20T10:06:06;101623.78;;;10.83;95.52
44872;BME280;30602;51.060;17.226;2023-03-20T10:09:59;101640.45;;;11.12;95.05
44872;BME280;30602;51.060;17.226;2023-03-20T10:28:58;101621.82;;;11.56;91.11
44872;BME280;30602;51.060;17.226;2023-03-20T10:41:21;101613.39;;;11.76;90.21
44872;BME280;30602;51.060;17.226;2023-03-20T10:44:54;101606.34;;;11.80;88.60
44872;BME280;30602;51.060;17.226;2023-03-20T10:48:45;101600.23;;;11.78;88.38
44872;BME280;30602;51.060;17.226;2023-03-20T10:52:56;101599.84;;;12.02;89.45
44872;BME280;30602;51.060;17.226;2023-03-20T10:57:02;101597.39;;;12.10;88.18
44872;BME280;30602;51.060;17.226;2023-03-20T11:00:26;101592.68;;;12.26;87.05
44872;BME280;30602;51.060;17.226;2023-03-20T11:04:12;101585.17;;;12.52;86.43
44872;BME280;30602;51.060;17.226;2023-03-20T11:08:13;101572.08;;;12.94;86.73
44872;BME280;30602;51.060;17.226;2023-03-20T11:11:46;101557.69;;;13.09;84.68
44872;BME280;30602;51.060;17.226;2023-03-20T11:15:43;101573.03;;;13.48;84.76
44872;BME280;30602;51.060;17.226;2023-03-20T11:23:17;101565.46;;;13.76;83.14
44872;BME280;30602;51.060;17.226;2023-03-20T11:27:25;101568.03;;;13.68;81.57
44872;BME280;30602;51.060;17.226;2023-03-20T11:39:24;101569.41;;;14.01;79.06
44872;BME280;30602;51.060;17.226;2023-03-20T11:43:40;101560.06;;;14.18;78.96
44872;BME280;30602;51.060;17.226;2023-03-20T11:47:26;101561.69;;;14.17;78.20
44872;BME280;30602;51.060;17.226;2023-03-20T11:55:03;101552.82;;;14.17;78.40
44872;BME280;30602;51.060;17.226;2023-03-20T12:10:19;101534.89;;;14.59;76.36
44872;BME280;30602;51.060;17.226;2023-03-20T12:14:02;101532.66;;;14.60;74.02
44872;BME280;30602;51.060;17.226;2023-03-20T12:18:12;101534.70;;;14.68;73.79
44872;BME280;30602;51.060;17.226;2023-03-20T12:21:45;101534.34;;;14.56;73.86
44872;BME280;30602;51.060;17.226;2023-03-20T12:25:53;101530.54;;;14.50;72.89
44872;BME280;30602;51.060;17.226;2023-03-20T12:33:48;101520.80;;;14.56;73.19
44872;BME280;30602;51.060;17.226;2023-03-20T12:37:35;101522.45;;;14.53;72.07
44872;BME280;30602;51.060;17.226;2023-03-20T12:45:40;101510.41;;;14.44;71.92
44872;BME280;30602;51.060;17.226;2023-03-20T13:01:15;101492.15;;;15.11;72.06
44872;BME280;30602;51.060;17.226;2023-03-20T13:13:05;101477.23;;;15.71;68.13
44872;BME280;30602;51.060;17.226;2023-03-20T13:20:30;101477.80;;;15.52;65.68
44872;BME280;30602;51.060;17.226;2023-03-20T13:27:48;101473.55;;;15.31;69.74
44872;BME280;30602;51.060;17.226;2023-03-20T13:35:16;101467.23;;;15.25;69.81
44872;BME280;30602;51.060;17.226;2023-03-20T13:39:32;101465.84;;;15.09;71.20
44872;BME280;30602;51.060;17.226;2023-03-20T13:43:45;101468.21;;;14.73;73.36
44872;BME280;30602;51.060;17.226;2023-03-20T13:47:55;101476.75;;;14.41;74.44
44872;BME280;30602;51.060;17.226;2023-03-20T13:51:55;101479.47;;;14.07;77.55
44872;BME280;30602;51.060;17.226;2023-03-20T13:59:46;101473.98;;;13.69;83.25
44872;BME280;30602;51.060;17.226;2023-03-20T14:03:33;101463.93;;;13.84;82.03
44872;BME280;30602;51.060;17.226;2023-03-20T14:07:34;101458.79;;;14.08;80.30
44872;BME280;30602;51.060;17.226;2023-03-20T14:11:35;101456.45;;;14.16;75.95
44872;BME280;30602;51.060;17.226;2023-03-20T14:14:58;101455.16;;;14.15;70.13
44872;BME280;30602;51.060;17.226;2023-03-20T14:18:44;101455.16;;;14.14;69.65
44872;BME280;30602;51.060;17.226;2023-03-20T14:26:49;101447.73;;;14.06;69.17
44872;BME280;30602;51.060;17.226;2023-03-20T14:35:17;101451.88;;;13.93;69.48
44872;BME280;30602;51.060;17.226;2023-03-20T14:55:29;101461.78;;;13.98;74.61
44872;BME280;30602;51.060;17.226;2023-03-20T14:59:41;101467.25;;;13.89;76.65
44872;BME280;30602;51.060;17.226;2023-03-20T15:03:09;101466.69;;;13.77;75.47
44872;BME280;30602;51.060;17.226;2023-03-20T15:11:25;101479.70;;;13.68;76.72
44872;BME280;30602;51.060;17.226;2023-03-20T15:14:56;101482.62;;;13.37;72.75
44872;BME280;30602;51.060;17.226;2023-03-20T15:18:53;101494.37;;;13.22;72.73
44872;BME280;30602;51.060;17.226;2023-03-20T15:22:25;101490.69;;;13.12;73.84
44872;BME280;30602;51.060;17.226;2023-03-20T15:26:01;101485.09;;;12.94;75.21
44872;BME280;30602;51.060;17.226;2023-03-20T15:29:51;101482.54;;;12.86;76.26
44872;BME280;30602;51.060;17.226;2023-03-20T15:33:49;101485.03;;;12.75;77.23
44872;BME280;30602;51.060;17.226;2023-03-20T15:37:24;101494.16;;;12.61;76.58
44872;BME280;30602;51.060;17.226;2023-03-20T15:40:47;101491.17;;;12.46;76.21
44872;BME280;30602;51.060;17.226;2023-03-20T15:44:24;101499.13;;;12.34;76.67
44872;BME280;30602;51.060;17.226;2023-03-20T15:48:33;101497.48;;;12.28;76.88
44872;BME280;30602;51.060;17.226;2023-03-20T15:55:05;101506.49;;;12.32;77.20
44872;BME280;30602;51.060;17.226;2023-03-20T15:58:28;101524.19;;;12.40;77.05
44872;BME280;30602;51.060;17.226;2023-03-20T16:01:51;101528.94;;;12.35;77.23
44872;BME280;30602;51.060;17.226;2023-03-20T16:05:23;101531.32;;;12.30;77.70
44872;BME280;30602;51.060;17.226;2023-03-20T16:09:18;101533.06;;;12.18;77.25
44872;BME280;30602;51.060;17.226;2023-03-20T16:13:09;101541.95;;;12.05;78.10
44872;BME280;30602;51.060;17.226;2023-03-20T16:17:27;101548.02;;;11.90;78.51
44872;BME280;30602;51.060;17.226;2023-03-20T16:21:17;101550.00;;;11.89;79.31
44872;BME280;30602;51.060;17.226;2023-03-20T16:25:16;101552.60;;;11.82;79.49
44872;BME280;30602;51.060;17.226;2023-03-20T16:28:44;101548.46;;;11.79;79.89
44872;BME280;30602;51.060;17.226;2023-03-20T16:32:32;101545.09;;;11.82;79.25
44872;BME280;30602;51.060;17.226;2023-03-20T16:36:30;101551.13;;;11.74;78.82
44872;BME280;30602;51.060;17.226;2023-03-20T16:40:17;101556.85;;;11.68;78.59
44872;BME280;30602;51.060;17.226;2023-03-20T16:43:50;101556.19;;;11.61;78.90
44872;BME280;30602;51.060;17.226;2023-03-20T16:47:35;101556.50;;;11.56;79.44
44872;BME280;30602;51.060;17.226;2023-03-20T16:51:26;101553.00;;;11.49;80.08
44872;BME280;30602;51.060;17.226;2023-03-20T16:54:50;101557.15;;;11.42;80.67
44872;BME280;30602;51.060;17.226;2023-03-20T16:58:16;101567.20;;;11.37;81.04
44872;BME280;30602;51.060;17.226;2023-03-20T17:01:43;101567.79;;;11.20;81.88
44872;BME280;30602;51.060;17.226;2023-03-20T17:05:48;101568.29;;;11.19;82.33
44872;BME280;30602;51.060;17.226;2023-03-20T17:09:52;101567.80;;;11.19;82.66
44872;BME280;30602;51.060;17.226;2023-03-20T17:13:15;101577.55;;;11.28;82.91
44872;BME280;30602;51.060;17.226;2023-03-20T17:16:54;101580.53;;;11.29;83.05
44872;BME280;30602;51.060;17.226;2023-03-20T17:20:37;101581.67;;;11.18;83.88
44872;BME280;30602;51.060;17.226;2023-03-20T17:24:56;101576.52;;;11.14;84.41
44872;BME280;30602;51.060;17.226;2023-03-20T17:28:35;101582.07;;;11.02;85.56
44872;BME280;30602;51.060;17.226;2023-03-20T17:32:18;101578.16;;;10.98;86.55
44872;BME280;30602;51.060;17.226;2023-03-20T17:39:40;101577.95;;;11.00;87.55
44872;BME280;30602;51.060;17.226;2023-03-20T17:43:47;101574.72;;;10.95;88.05
44872;BME280;30602;51.060;17.226;2023-03-20T17:48:05;101578.43;;;10.96;88.43
44872;BME280;30602;51.060;17.226;2023-03-20T17:51:42;101582.45;;;11.02;88.29
44872;BME280;30602;51.060;17.226;2023-03-20T17:55:37;101584.76;;;10.98;88.54
44872;BME280;30602;51.060;17.226;2023-03-20T17:59:19;101588.30;;;10.93;89.01
44872;BME280;30602;51.060;17.226;2023-03-20T18:02:55;101571.09;;;10.70;89.48
44872;BME280;30602;51.060;17.226;2023-03-20T18:06:45;101592.94;;;10.75;89.91
44872;BME280;30602;51.060;17.226;2023-03-20T18:13:47;101603.12;;;10.62;90.70
44872;BME280;30602;51.060;17.226;2023-03-20T18:17:13;101603.72;;;10.55;91.12
44872;BME280;30602;51.060;17.226;2023-03-20T18:21:09;101607.30;;;10.58;91.32
44872;BME280;30602;51.060;17.226;2023-03-20T18:25:04;101607.59;;;10.62;91.53
44872;BME280;30602;51.060;17.226;2023-03-20T18:28:49;101610.32;;;10.63;91.68
44872;BME280;30602;51.060;17.226;2023-03-20T18:32:48;101610.10;;;10.71;91.39
44872;BME280;30602;51.060;17.226;2023-03-20T18:36:30;101608.35;;;10.68;91.16
44872;BME280;30602;51.060;17.226;2023-03-20T18:40:22;101604.43;;;10.65;91.22
44872;BME280;30602;51.060;17.226;2023-03-20T18:44:06;101602.78;;;10.57;91.59
44872;BME280;30602;51.060;17.226;2023-03-20T18:47:29;101597.08;;;10.52;91.80
44872;BME280;30602;51.060;17.226;2023-03-20T18:51:14;101593.45;;;10.46;92.03
44872;BME280;30602;51.060;17.226;2023-03-20T18:55:07;101589.76;;;10.42;92.10
44872;BME280;30602;51.060;17.226;2023-03-20T18:58:31;101587.11;;;10.38;92.36
44872;BME280;30602;51.060;17.226;2023-03-20T19:02:48;101587.90;;;10.37;92.21
44872;BME280;30602;51.060;17.226;2023-03-20T19:06:45;101590.19;;;10.36;92.46
44872;BME280;30602;51.060;17.226;2023-03-20T19:10:37;101591.29;;;10.41;92.61
44872;BME280;30602;51.060;17.226;2023-03-20T19:14:24;101588.66;;;10.32;92.95
44872;BME280;30602;51.060;17.226;2023-03-20T19:18:59;101590.42;;;10.26;93.21
44872;BME280;30602;51.060;17.226;2023-03-20T19:22:41;101593.46;;;10.25;93.60
44872;BME280;30602;51.060;17.226;2023-03-20T19:26:18;101591.57;;;10.23;93.73
44872;BME280;30602;51.060;17.226;2023-03-20T19:30:02;101590.52;;;10.11;94.34
44872;BME280;30602;51.060;17.226;2023-03-20T19:34:10;101592.69;;;10.09;95.01
44872;BME280;30602;51.060;17.226;2023-03-20T19:38:02;101597.02;;;10.08;95.27
44872;BME280;30602;51.060;17.226;2023-03-20T19:41:45;101599.99;;;10.00;95.67
44872;BME280;30602;51.060;17.226;2023-03-20T19:45:27;101606.87;;;9.98;95.94
44872;BME280;30602;51.060;17.226;2023-03-20T19:49:02;101604.91;;;10.01;96.10
44872;BME280;30602;51.060;17.226;2023-03-20T19:53:07;101604.75;;;10.06;95.98
44872;BME280;30602;51.060;17.226;2023-03-20T19:56:34;101601.62;;;9.99;96.21
44872;BME280;30602;51.060;17.226;2023-03-20T20:00:24;101608.59;;;9.95;96.85
44872;BME280;30602;51.060;17.226;2023-03-20T20:04:55;101607.82;;;9.95;97.09
44872;BME280;30602;51.060;17.226;2023-03-20T20:08:16;101609.33;;;9.85;97.67
44872;BME280;30602;51.060;17.226;2023-03-20T20:17:03;101607.41;;;9.84;98.63
44872;BME280;30602;51.060;17.226;2023-03-20T20:20:50;101607.38;;;9.82;98.83
44872;BME280;30602;51.060;17.226;2023-03-20T20:25:13;101611.88;;;9.81;99.24
44872;BME280;30602;51.060;17.226;2023-03-20T20:28:51;101613.71;;;9.83;99.59
44872;BME280;30602;51.060;17.226;2023-03-20T20:38:32;101615.27;;;9.95;99.73
44872;BME280;30602;51.060;17.226;2023-03-20T20:42:18;101611.23;;;9.89;100.00
44872;BME280;30602;51.060;17.226;2023-03-20T20:46:03;101603.85;;;9.82;100.00
44872;BME280;30602;51.060;17.226;2023-03-20T20:53:43;101619.35;;;9.83;100.00
44872;BME280;30602;51.060;17.226;2023-03-20T20:57:26;101617.19;;;9.82;100.00
44872;BME280;30602;51.060;17.226;2023-03-20T21:01:12;101617.32;;;9.77;100.00
44872;BME280;30602;51.060;17.226;2023-03-20T21:08:37;101614.91;;;9.73;100.00
44872;BME280;30602;51.060;17.226;2023-03-20T21:12:03;101612.53;;;9.72;100.00
44872;BME280;30602;51.060;17.226;2023-03-20T21:15:39;101612.57;;;9.69;100.00
44872;BME280;30602;51.060;17.226;2023-03-20T21:19:01;101608.27;;;9.67;100.00
44872;BME280;30602;51.060;17.226;2023-03-20T21:24:41;101610.17;;;9.60;100.00
44872;BME280;30602;51.060;17.226;2023-03-20T21:28:02;101610.60;;;9.56;100.00
44872;BME280;30602;51.060;17.226;2023-03-20T21:31:25;101612.54;;;9.47;100.00
44872;BME280;30602;51.060;17.226;2023-03-20T21:35:11;101612.34;;;9.43;100.00
44872;BME280;30602;51.060;17.226;2023-03-20T21:39:00;101608.38;;;9.34;100.00
44872;BME280;30602;51.060;17.226;2023-03-20T21:42:38;101609.43;;;9.33;100.00
44872;BME280;30602;51.060;17.226;2023-03-20T21:46:06;101616.34;;;9.28;100.00
44872;BME280;30602;51.060;17.226;2023-03-20T21:50:08;101613.54;;;9.20;100.00
44872;BME280;30602;51.060;17.226;2023-03-20T21:53:52;101606.78;;;9.24;100.00
44872;BME280;30602;51.060;17.226;2023-03-20T21:57:38;101598.88;;;9.17;100.00
44872;BME280;30602;51.060;17.226;2023-03-20T22:01:07;101614.12;;;9.18;100.00
44872;BME280;30602;51.060;17.226;2023-03-20T22:04:37;101615.64;;;9.11;100.00
44872;BME280;30602;51.060;17.226;2023-03-20T22:12:29;101606.62;;;9.01;100.00
44872;BME280;30602;51.060;17.226;2023-03-20T22:16:40;101599.38;;;8.93;100.00
44872;BME280;30602;51.060;17.226;2023-03-20T22:20:35;101604.36;;;8.86;100.00
44872;BME280;30602;51.060;17.226;2023-03-20T22:24:32;101600.67;;;8.80;100.00
44872;BME280;30602;51.060;17.226;2023-03-20T22:32:18;101604.16;;;8.73;100.00
44872;BME280;30602;51.060;17.226;2023-03-20T22:35:45;101602.95;;;8.74;100.00
44872;BME280;30602;51.060;17.226;2023-03-20T22:39:29;101600.96;;;8.73;100.00
44872;BME280;30602;51.060;17.226;2023-03-20T22:42:53;101602.14;;;8.74;100.00
44872;BME280;30602;51.060;17.226;2023-03-20T22:46:53;101603.70;;;8.73;100.00
44872;BME280;30602;51.060;17.226;2023-03-20T22:54:51;101572.27;;;8.55;100.00
44872;BME280;30602;51.060;17.226;2023-03-20T22:58:19;101603.05;;;8.69;100.00
44872;BME280;30602;51.060;17.226;2023-03-20T23:01:58;101598.40;;;8.61;100.00
44872;BME280;30602;51.060;17.226;2023-03-20T23:05:28;101595.62;;;8.57;100.00
44872;BME280;30602;51.060;17.226;2023-03-20T23:09:25;101599.28;;;8.61;100.00
44872;BME280;30602;51.060;17.226;2023-03-20T23:12:58;101582.36;;;8.50;100.00
44872;BME280;30602;51.060;17.226;2023-03-20T23:16:39;101599.59;;;8.62;100.00
44872;BME280;30602;51.060;17.226;2023-03-20T23:20:29;101592.49;;;8.65;100.00
44872;BME280;30602;51.060;17.226;2023-03-20T23:23:59;101591.41;;;8.66;100.00
44872;BME280;30602;51.060;17.226;2023-03-20T23:27:26;101586.11;;;8.60;100.00
44872;BME280;30602;51.060;17.226;2023-03-20T23:30:52;101568.49;;;8.49;100.00
44872;BME280;30602;51.060;17.226;2023-03-20T23:34:37;101581.98;;;8.50;100.00
44872;BME280;30602;51.060;17.226;2023-03-20T23:38:21;101588.39;;;8.44;100.00
44872;BME280;30602;51.060;17.226;2023-03-20T23:41:43;101587.66;;;8.44;100.00